sensor_id;sensor_type;location;lat;lon;timestamp;pressure;altitude;pressure_sealevel;temperature;humidity
60099;BME280;62818;49.394;8.686;2022-08-19T00:00:24;99906.94;;;22.47;70.24
60099;BME280;62818;49.394;8.686;2022-08-19T00:01:28;99901.59;;;22.67;69.33
60099;BME280;62818;49.394;8.686;2022-08-19T00:02:30;99898.38;;;22.70;69.05
60099;BME280;62818;49.394;8.686;2022-08-19T00:03:30;99903.56;;;22.81;68.94
60099;BME280;62818;49.394;8.686;2022-08-19T00:04:34;99898.97;;;22.92;68.37
60099;BME280;62818;49.394;8.686;2022-08-19T00:05:39;99894.09;;;22.84;68.76
60099;BME280;62818;49.394;8.686;2022-08-19T00:06:43;99885.44;;;22.87;68.39
60099;BME280;62818;49.394;8.686;2022-08-19T00:07:45;99887.03;;;22.78;68.87
60099;BME280;62818;49.394;8.686;2022-08-19T00:08:49;99884.41;;;22.93;68.39
60099;BME280;62818;49.394;8.686;2022-08-19T00:09:51;99879.22;;;22.76;69.00
60099;BME280;62818;49.394;8.686;2022-08-19T00:10:54;99890.88;;;22.92;68.41
60099;BME280;62818;49.394;8.686;2022-08-19T00:11:59;99878.75;;;22.23;70.80
60099;BME280;62818;49.394;8.686;2022-08-19T00:13:00;99875.31;;;21.90;72.46
60099;BME280;62818;49.394;8.686;2022-08-19T00:14:08;99872.53;;;21.80;72.92
60099;BME280;62818;49.394;8.686;2022-08-19T00:15:15;99871.25;;;21.83;72.98
60099;BME280;62818;49.394;8.686;2022-08-19T00:16:20;99868.34;;;21.99;71.90
60099;BME280;62818;49.394;8.686;2022-08-19T00:17:22;99865.84;;;21.83;72.92
60099;BME280;62818;49.394;8.686;2022-08-19T00:18:25;99862.88;;;21.84;73.03
60099;BME280;62818;49.394;8.686;2022-08-19T00:19:30;99865.72;;;21.68;73.33
60099;BME280;62818;49.394;8.686;2022-08-19T00:20:30;99872.13;;;21.62;74.14
60099;BME280;62818;49.394;8.686;2022-08-19T00:21:35;99868.91;;;21.60;74.03
60099;BME280;62818;49.394;8.686;2022-08-19T00:22:43;99868.06;;;21.59;74.43
60099;BME280;62818;49.394;8.686;2022-08-19T00:23:45;99878.03;;;21.54;74.51
60099;BME280;62818;49.394;8.686;2022-08-19T00:24:48;99885.06;;;21.96;72.93
60099;BME280;62818;49.394;8.686;2022-08-19T00:25:51;99873.72;;;21.89;73.17
60099;BME280;62818;49.394;8.686;2022-08-19T00:26:52;99879.00;;;21.79;73.51
60099;BME280;62818;49.394;8.686;2022-08-19T00:27:55;99876.28;;;21.74;73.60
60099;BME280;62818;49.394;8.686;2022-08-19T00:28:59;99890.25;;;21.66;74.07
60099;BME280;62818;49.394;8.686;2022-08-19T00:30:04;99879.91;;;21.90;73.48
60099;BME280;62818;49.394;8.686;2022-08-19T00:31:07;99884.03;;;22.07;72.10
60099;BME280;62818;49.394;8.686;2022-08-19T00:32:10;99881.25;;;21.92;72.72
60099;BME280;62818;49.394;8.686;2022-08-19T00:33:14;99876.31;;;21.79;73.75
60099;BME280;62818;49.394;8.686;2022-08-19T00:34:17;99883.88;;;21.82;73.53
60099;BME280;62818;49.394;8.686;2022-08-19T00:35:17;99890.41;;;22.33;71.57
60099;BME280;62818;49.394;8.686;2022-08-19T00:36:21;99875.16;;;22.12;72.10
60099;BME280;62818;49.394;8.686;2022-08-19T00:37:24;99874.72;;;22.35;71.56
60099;BME280;62818;49.394;8.686;2022-08-19T00:38:27;99875.53;;;22.31;71.59
60099;BME280;62818;49.394;8.686;2022-08-19T00:39:30;99868.97;;;22.11;72.09
60099;BME280;62818;49.394;8.686;2022-08-19T00:40:30;99868.81;;;21.86;73.30
60099;BME280;62818;49.394;8.686;2022-08-19T00:41:33;99867.50;;;21.89;73.44
60099;BME280;62818;49.394;8.686;2022-08-19T00:42:36;99863.72;;;21.90;73.21
60099;BME280;62818;49.394;8.686;2022-08-19T00:43:40;99862.31;;;21.82;73.64
60099;BME280;62818;49.394;8.686;2022-08-19T00:44:43;99860.84;;;21.65;74.60
60099;BME280;62818;49.394;8.686;2022-08-19T00:45:49;99872.28;;;21.82;74.08
60099;BME280;62818;49.394;8.686;2022-08-19T00:46:52;99872.78;;;21.79;73.78
60099;BME280;62818;49.394;8.686;2022-08-19T00:47:54;99861.66;;;21.65;74.57
60099;BME280;62818;49.394;8.686;2022-08-19T00:48:56;99858.53;;;21.83;73.98
60099;BME280;62818;49.394;8.686;2022-08-19T00:50:00;99873.38;;;22.33;72.04
60099;BME280;62818;49.394;8.686;2022-08-19T00:51:04;99873.31;;;22.18;72.40
60099;BME280;62818;49.394;8.686;2022-08-19T00:52:12;99868.97;;;22.11;72.74
60099;BME280;62818;49.394;8.686;2022-08-19T00:53:22;99870.63;;;22.18;72.37
60099;BME280;62818;49.394;8.686;2022-08-19T00:54:28;99868.25;;;22.31;71.97
60099;BME280;62818;49.394;8.686;2022-08-19T00:55:32;99869.91;;;22.42;71.48
60099;BME280;62818;49.394;8.686;2022-08-19T00:56:33;99872.31;;;22.39;71.52
60099;BME280;62818;49.394;8.686;2022-08-19T00:57:37;99877.75;;;22.54;70.78
60099;BME280;62818;49.394;8.686;2022-08-19T00:58:40;99884.78;;;22.50;71.08
60099;BME280;62818;49.394;8.686;2022-08-19T00:59:43;99880.16;;;22.40;71.35
60099;BME280;62818;49.394;8.686;2022-08-19T01:00:48;99885.75;;;22.24;72.18
60099;BME280;62818;49.394;8.686;2022-08-19T01:01:49;99881.06;;;22.61;70.86
60099;BME280;62818;49.394;8.686;2022-08-19T01:02:49;99878.66;;;22.69;70.04
60099;BME280;62818;49.394;8.686;2022-08-19T01:03:50;99873.63;;;22.26;71.94
60099;BME280;62818;49.394;8.686;2022-08-19T01:04:53;99872.34;;;22.49;70.97
60099;BME280;62818;49.394;8.686;2022-08-19T01:05:54;99875.13;;;22.64;70.44
60099;BME280;62818;49.394;8.686;2022-08-19T01:06:56;99858.66;;;22.70;70.22
60099;BME280;62818;49.394;8.686;2022-08-19T01:08:00;99863.50;;;22.63;70.26
60099;BME280;62818;49.394;8.686;2022-08-19T01:09:07;99861.56;;;22.59;70.93
60099;BME280;62818;49.394;8.686;2022-08-19T01:10:13;99859.41;;;22.51;71.22
60099;BME280;62818;49.394;8.686;2022-08-19T01:11:16;99859.44;;;22.61;70.75
60099;BME280;62818;49.394;8.686;2022-08-19T01:12:20;99860.38;;;22.25;72.12
60099;BME280;62818;49.394;8.686;2022-08-19T01:13:24;99855.34;;;22.48;71.38
60099;BME280;62818;49.394;8.686;2022-08-19T01:14:30;99862.72;;;22.68;70.51
60099;BME280;62818;49.394;8.686;2022-08-19T01:15:40;99865.41;;;22.78;70.09
60099;BME280;62818;49.394;8.686;2022-08-19T01:16:47;99867.59;;;22.81;69.78
60099;BME280;62818;49.394;8.686;2022-08-19T01:17:49;99873.53;;;22.73;70.28
60099;BME280;62818;49.394;8.686;2022-08-19T01:18:53;99881.81;;;22.46;71.18
60099;BME280;62818;49.394;8.686;2022-08-19T01:19:58;99875.66;;;22.61;70.83
60099;BME280;62818;49.394;8.686;2022-08-19T01:21:06;99878.81;;;22.43;71.23
60099;BME280;62818;49.394;8.686;2022-08-19T01:23:23;99884.44;;;22.31;71.79
60099;BME280;62818;49.394;8.686;2022-08-19T01:24:43;99888.00;;;22.52;71.15
60099;BME280;62818;49.394;8.686;2022-08-19T01:25:51;99884.84;;;22.65;70.56
60099;BME280;62818;49.394;8.686;2022-08-19T01:26:54;99884.34;;;22.78;69.95
60099;BME280;62818;49.394;8.686;2022-08-19T01:27:55;99882.44;;;22.78;70.08
60099;BME280;62818;49.394;8.686;2022-08-19T01:28:58;99885.75;;;22.24;72.08
60099;BME280;62818;49.394;8.686;2022-08-19T01:30:05;99879.34;;;22.40;71.82
60099;BME280;62818;49.394;8.686;2022-08-19T01:31:17;99876.84;;;22.23;72.26
60099;BME280;62818;49.394;8.686;2022-08-19T01:32:26;99877.66;;;22.24;72.67
60099;BME280;62818;49.394;8.686;2022-08-19T01:33:30;99877.13;;;21.80;74.07
60099;BME280;62818;49.394;8.686;2022-08-19T01:34:33;99870.22;;;21.57;75.43
60099;BME280;62818;49.394;8.686;2022-08-19T01:35:37;99873.41;;;21.49;75.68
60099;BME280;62818;49.394;8.686;2022-08-19T01:36:43;99873.00;;;21.67;75.03
60099;BME280;62818;49.394;8.686;2022-08-19T01:38:54;99867.16;;;21.43;75.93
60099;BME280;62818;49.394;8.686;2022-08-19T01:39:58;99868.91;;;21.60;75.36
60099;BME280;62818;49.394;8.686;2022-08-19T01:40:58;99872.00;;;21.41;76.25
60099;BME280;62818;49.394;8.686;2022-08-19T01:42:01;99868.50;;;21.41;76.42
60099;BME280;62818;49.394;8.686;2022-08-19T01:43:03;99870.31;;;21.67;75.01
60099;BME280;62818;49.394;8.686;2022-08-19T01:44:08;99870.53;;;21.61;75.33
60099;BME280;62818;49.394;8.686;2022-08-19T01:45:12;99858.56;;;21.47;75.95
60099;BME280;62818;49.394;8.686;2022-08-19T01:46:17;99857.06;;;21.66;74.99
60099;BME280;62818;49.394;8.686;2022-08-19T01:47:18;99857.41;;;21.79;74.72
60099;BME280;62818;49.394;8.686;2022-08-19T01:48:19;99852.41;;;21.93;74.25
60099;BME280;62818;49.394;8.686;2022-08-19T01:49:26;99862.69;;;21.59;74.70
60099;BME280;62818;49.394;8.686;2022-08-19T01:50:27;99859.38;;;21.47;75.25
60099;BME280;62818;49.394;8.686;2022-08-19T01:51:28;99866.25;;;21.33;76.02
60099;BME280;62818;49.394;8.686;2022-08-19T01:52:30;99868.28;;;21.53;75.35
60099;BME280;62818;49.394;8.686;2022-08-19T01:53:31;99873.50;;;21.64;74.66
60099;BME280;62818;49.394;8.686;2022-08-19T01:54:37;99886.03;;;22.22;72.63
60099;BME280;62818;49.394;8.686;2022-08-19T01:55:40;99877.63;;;22.13;72.20
60099;BME280;62818;49.394;8.686;2022-08-19T01:56:42;99882.47;;;22.11;72.67
60099;BME280;62818;49.394;8.686;2022-08-19T01:57:46;99888.13;;;22.10;72.87
60099;BME280;62818;49.394;8.686;2022-08-19T01:58:54;99883.94;;;22.39;71.56
60099;BME280;62818;49.394;8.686;2022-08-19T02:00:07;99893.91;;;22.39;71.37
60099;BME280;62818;49.394;8.686;2022-08-19T02:01:14;99889.47;;;22.12;72.84
60099;BME280;62818;49.394;8.686;2022-08-19T02:02:14;99889.59;;;22.43;71.58
60099;BME280;62818;49.394;8.686;2022-08-19T02:03:15;99890.41;;;22.43;71.51
60099;BME280;62818;49.394;8.686;2022-08-19T02:04:18;99895.56;;;22.50;71.47
60099;BME280;62818;49.394;8.686;2022-08-19T02:05:19;99891.28;;;22.59;70.83
60099;BME280;62818;49.394;8.686;2022-08-19T02:06:21;99887.41;;;22.35;71.66
60099;BME280;62818;49.394;8.686;2022-08-19T02:07:22;99887.63;;;22.23;72.43
60099;BME280;62818;49.394;8.686;2022-08-19T02:08:23;99887.38;;;21.78;73.61
60099;BME280;62818;49.394;8.686;2022-08-19T02:09:28;99888.66;;;22.12;72.48
60099;BME280;62818;49.394;8.686;2022-08-19T02:10:31;99887.66;;;21.81;73.58
60099;BME280;62818;49.394;8.686;2022-08-19T02:11:33;99888.09;;;22.05;72.99
60099;BME280;62818;49.394;8.686;2022-08-19T02:12:35;99897.59;;;22.18;72.31
60099;BME280;62818;49.394;8.686;2022-08-19T02:13:36;99895.84;;;21.96;73.03
60099;BME280;62818;49.394;8.686;2022-08-19T02:14:39;99887.56;;;22.03;73.10
60099;BME280;62818;49.394;8.686;2022-08-19T02:15:42;99896.22;;;22.10;72.96
60099;BME280;62818;49.394;8.686;2022-08-19T02:16:43;99900.94;;;22.40;71.45
60099;BME280;62818;49.394;8.686;2022-08-19T02:17:43;99897.75;;;22.53;71.16
60099;BME280;62818;49.394;8.686;2022-08-19T02:18:47;99891.50;;;22.47;71.13
60099;BME280;62818;49.394;8.686;2022-08-19T02:19:53;99898.53;;;22.38;71.63
60099;BME280;62818;49.394;8.686;2022-08-19T02:20:53;99893.34;;;22.27;71.93
60099;BME280;62818;49.394;8.686;2022-08-19T02:21:54;99887.88;;;22.11;72.82
60099;BME280;62818;49.394;8.686;2022-08-19T02:22:57;99892.78;;;22.25;72.11
60099;BME280;62818;49.394;8.686;2022-08-19T02:23:57;99893.16;;;22.48;71.34
60099;BME280;62818;49.394;8.686;2022-08-19T02:24:58;99898.56;;;22.58;70.88
60099;BME280;62818;49.394;8.686;2022-08-19T02:25:59;99895.66;;;22.65;70.63
60099;BME280;62818;49.394;8.686;2022-08-19T02:26:59;99897.97;;;22.41;71.32
60099;BME280;62818;49.394;8.686;2022-08-19T02:28:03;99907.78;;;22.57;70.99
60099;BME280;62818;49.394;8.686;2022-08-19T02:29:09;99902.16;;;22.64;70.80
60099;BME280;62818;49.394;8.686;2022-08-19T02:30:13;99912.41;;;22.67;70.31
60099;BME280;62818;49.394;8.686;2022-08-19T02:31:18;99912.97;;;22.64;70.60
60099;BME280;62818;49.394;8.686;2022-08-19T02:32:23;99914.31;;;22.71;70.38
60099;BME280;62818;49.394;8.686;2022-08-19T02:33:23;99908.38;;;22.74;70.18
60099;BME280;62818;49.394;8.686;2022-08-19T02:34:24;99910.00;;;22.70;70.67
60099;BME280;62818;49.394;8.686;2022-08-19T02:35:27;99902.72;;;22.71;70.41
60099;BME280;62818;49.394;8.686;2022-08-19T02:36:28;99899.38;;;22.59;70.69
60099;BME280;62818;49.394;8.686;2022-08-19T02:37:32;99887.84;;;22.68;70.43
60099;BME280;62818;49.394;8.686;2022-08-19T02:38:52;99892.69;;;22.61;70.49
60099;BME280;62818;49.394;8.686;2022-08-19T02:39:55;99895.06;;;22.53;70.70
60099;BME280;62818;49.394;8.686;2022-08-19T02:40:59;99891.28;;;22.59;70.78
60099;BME280;62818;49.394;8.686;2022-08-19T02:42:02;99893.25;;;22.68;70.34
60099;BME280;62818;49.394;8.686;2022-08-19T02:43:09;99879.16;;;22.61;70.57
60099;BME280;62818;49.394;8.686;2022-08-19T02:44:17;99888.66;;;22.69;70.44
60099;BME280;62818;49.394;8.686;2022-08-19T02:45:18;99885.16;;;22.68;70.43
60099;BME280;62818;49.394;8.686;2022-08-19T02:46:26;99885.38;;;22.67;70.45
60099;BME280;62818;49.394;8.686;2022-08-19T02:47:28;99876.22;;;22.68;70.26
60099;BME280;62818;49.394;8.686;2022-08-19T02:48:29;99883.72;;;22.56;70.94
60099;BME280;62818;49.394;8.686;2022-08-19T02:49:35;99879.44;;;22.65;70.58
60099;BME280;62818;49.394;8.686;2022-08-19T02:50:41;99879.44;;;22.65;70.62
60099;BME280;62818;49.394;8.686;2022-08-19T02:51:43;99873.50;;;22.68;70.56
60099;BME280;62818;49.394;8.686;2022-08-19T02:52:49;99877.59;;;22.70;70.24
60099;BME280;62818;49.394;8.686;2022-08-19T02:53:52;99884.06;;;22.12;72.83
60099;BME280;62818;49.394;8.686;2022-08-19T02:54:54;99880.44;;;22.44;71.71
60099;BME280;62818;49.394;8.686;2022-08-19T02:55:57;99884.16;;;22.23;72.59
60099;BME280;62818;49.394;8.686;2022-08-19T02:56:58;99874.25;;;21.91;73.39
60099;BME280;62818;49.394;8.686;2022-08-19T02:58:01;99884.91;;;22.13;72.94
60099;BME280;62818;49.394;8.686;2022-08-19T02:59:03;99881.38;;;22.12;72.57
60099;BME280;62818;49.394;8.686;2022-08-19T03:00:10;99880.59;;;22.17;72.72
60099;BME280;62818;49.394;8.686;2022-08-19T03:01:26;99873.81;;;22.09;72.59
60099;BME280;62818;49.394;8.686;2022-08-19T03:02:30;99874.34;;;22.06;73.26
60099;BME280;62818;49.394;8.686;2022-08-19T03:03:30;99874.69;;;22.20;72.54
60099;BME280;62818;49.394;8.686;2022-08-19T03:04:38;99869.44;;;22.03;72.91
60099;BME280;62818;49.394;8.686;2022-08-19T03:05:42;99868.94;;;22.06;72.43
60099;BME280;62818;49.394;8.686;2022-08-19T03:06:46;99872.25;;;22.24;72.39
60099;BME280;62818;49.394;8.686;2022-08-19T03:07:47;99875.81;;;22.34;71.84
60099;BME280;62818;49.394;8.686;2022-08-19T03:08:53;99870.44;;;22.44;71.34
60099;BME280;62818;49.394;8.686;2022-08-19T03:09:56;99865.88;;;22.50;71.12
60099;BME280;62818;49.394;8.686;2022-08-19T03:10:59;99871.78;;;22.42;71.22
60099;BME280;62818;49.394;8.686;2022-08-19T03:12:03;99867.69;;;22.29;72.05
60099;BME280;62818;49.394;8.686;2022-08-19T03:13:04;99874.84;;;21.98;72.35
60099;BME280;62818;49.394;8.686;2022-08-19T03:14:09;99874.19;;;22.33;71.72
60099;BME280;62818;49.394;8.686;2022-08-19T03:15:10;99867.78;;;21.92;72.68
60099;BME280;62818;49.394;8.686;2022-08-19T03:16:11;99878.88;;;21.59;74.78
60099;BME280;62818;49.394;8.686;2022-08-19T03:17:14;99868.13;;;22.06;73.04
60099;BME280;62818;49.394;8.686;2022-08-19T03:18:15;99871.22;;;22.35;71.83
60099;BME280;62818;49.394;8.686;2022-08-19T03:19:20;99869.59;;;22.29;71.60
60099;BME280;62818;49.394;8.686;2022-08-19T03:20:21;99881.75;;;22.31;71.75
60099;BME280;62818;49.394;8.686;2022-08-19T03:21:24;99867.69;;;22.34;71.53
60099;BME280;62818;49.394;8.686;2022-08-19T03:22:31;99875.84;;;22.44;71.10
60099;BME280;62818;49.394;8.686;2022-08-19T03:23:34;99876.06;;;22.33;71.50
60099;BME280;62818;49.394;8.686;2022-08-19T03:24:39;99875.00;;;22.34;71.59
60099;BME280;62818;49.394;8.686;2022-08-19T03:25:41;99877.97;;;22.37;71.32
60099;BME280;62818;49.394;8.686;2022-08-19T03:26:49;99877.72;;;22.39;71.35
60099;BME280;62818;49.394;8.686;2022-08-19T03:27:57;99876.13;;;21.91;72.63
60099;BME280;62818;49.394;8.686;2022-08-19T03:29:02;99879.97;;;22.00;73.22
60099;BME280;62818;49.394;8.686;2022-08-19T03:30:04;99881.88;;;22.04;72.50
60099;BME280;62818;49.394;8.686;2022-08-19T03:31:12;99887.38;;;22.25;72.13
60099;BME280;62818;49.394;8.686;2022-08-19T03:32:14;99886.59;;;22.34;71.60
60099;BME280;62818;49.394;8.686;2022-08-19T03:33:14;99888.50;;;22.39;71.23
60099;BME280;62818;49.394;8.686;2022-08-19T03:34:23;99893.41;;;22.42;71.06
60099;BME280;62818;49.394;8.686;2022-08-19T03:35:31;99901.44;;;22.32;71.38
60099;BME280;62818;49.394;8.686;2022-08-19T03:36:32;99901.19;;;22.33;71.33
60099;BME280;62818;49.394;8.686;2022-08-19T03:37:32;99902.84;;;22.39;71.16
60099;BME280;62818;49.394;8.686;2022-08-19T03:38:38;99898.81;;;22.42;71.04
60099;BME280;62818;49.394;8.686;2022-08-19T03:39:44;99902.56;;;22.41;71.19
60099;BME280;62818;49.394;8.686;2022-08-19T03:40:50;99895.47;;;22.20;71.71
60099;BME280;62818;49.394;8.686;2022-08-19T03:41:51;99902.53;;;22.31;71.66
60099;BME280;62818;49.394;8.686;2022-08-19T03:42:56;99902.28;;;22.37;71.25
60099;BME280;62818;49.394;8.686;2022-08-19T03:43:59;99901.78;;;22.40;71.04
60099;BME280;62818;49.394;8.686;2022-08-19T03:45:02;99899.22;;;22.19;71.55
60099;BME280;62818;49.394;8.686;2022-08-19T03:46:15;99901.38;;;22.17;72.02
60099;BME280;62818;49.394;8.686;2022-08-19T03:47:19;99898.16;;;21.78;73.10
60099;BME280;62818;49.394;8.686;2022-08-19T03:48:20;99907.22;;;21.62;74.59
60099;BME280;62818;49.394;8.686;2022-08-19T03:49:24;99894.69;;;21.82;73.38
60099;BME280;62818;49.394;8.686;2022-08-19T03:50:27;99901.03;;;21.66;74.54
60099;BME280;62818;49.394;8.686;2022-08-19T03:51:35;99901.84;;;21.98;73.32
60099;BME280;62818;49.394;8.686;2022-08-19T03:52:40;99902.91;;;21.97;73.12
60099;BME280;62818;49.394;8.686;2022-08-19T03:53:50;99908.25;;;21.87;73.11
60099;BME280;62818;49.394;8.686;2022-08-19T03:54:51;99904.59;;;22.08;72.79
60099;BME280;62818;49.394;8.686;2022-08-19T03:55:54;99903.53;;;22.09;72.71
60099;BME280;62818;49.394;8.686;2022-08-19T03:56:56;99912.94;;;22.07;72.46
60099;BME280;62818;49.394;8.686;2022-08-19T03:57:57;99904.34;;;22.15;72.36
60099;BME280;62818;49.394;8.686;2022-08-19T03:58:58;99901.91;;;22.13;72.33
60099;BME280;62818;49.394;8.686;2022-08-19T04:00:00;99908.66;;;22.11;72.45
60099;BME280;62818;49.394;8.686;2022-08-19T04:01:10;99897.59;;;22.18;72.34
60099;BME280;62818;49.394;8.686;2022-08-19T04:02:13;99903.56;;;22.20;71.97
60099;BME280;62818;49.394;8.686;2022-08-19T04:03:17;99899.75;;;22.16;72.24
60099;BME280;62818;49.394;8.686;2022-08-19T04:04:18;99898.97;;;22.20;72.14
60099;BME280;62818;49.394;8.686;2022-08-19T04:05:24;99898.09;;;22.04;72.06
60099;BME280;62818;49.394;8.686;2022-08-19T04:06:31;99892.69;;;22.04;72.46
60099;BME280;62818;49.394;8.686;2022-08-19T04:07:34;99895.41;;;22.09;72.10
60099;BME280;62818;49.394;8.686;2022-08-19T04:08:35;99901.41;;;21.80;73.05
60099;BME280;62818;49.394;8.686;2022-08-19T04:09:36;99904.34;;;21.10;75.52
60099;BME280;62818;49.394;8.686;2022-08-19T04:10:37;99909.81;;;20.93;76.37
60099;BME280;62818;49.394;8.686;2022-08-19T04:11:44;99902.81;;;21.19;75.24
60099;BME280;62818;49.394;8.686;2022-08-19T04:12:47;99908.16;;;21.14;75.61
60099;BME280;62818;49.394;8.686;2022-08-19T04:13:49;99908.50;;;21.54;74.75
60099;BME280;62818;49.394;8.686;2022-08-19T04:14:52;99899.03;;;21.83;73.27
60099;BME280;62818;49.394;8.686;2022-08-19T04:15:53;99895.97;;;21.75;72.98
60099;BME280;62818;49.394;8.686;2022-08-19T04:16:55;99901.25;;;21.91;72.84
60099;BME280;62818;49.394;8.686;2022-08-19T04:17:57;99902.97;;;21.71;73.58
60099;BME280;62818;49.394;8.686;2022-08-19T04:19:01;99899.47;;;21.75;73.22
60099;BME280;62818;49.394;8.686;2022-08-19T04:20:03;99897.97;;;21.53;74.03
60099;BME280;62818;49.394;8.686;2022-08-19T04:21:07;99900.97;;;20.98;75.80
60099;BME280;62818;49.394;8.686;2022-08-19T04:22:08;99903.63;;;21.51;74.68
60099;BME280;62818;49.394;8.686;2022-08-19T04:23:13;99899.91;;;21.25;75.30
60099;BME280;62818;49.394;8.686;2022-08-19T04:24:18;99897.88;;;21.74;73.61
60099;BME280;62818;49.394;8.686;2022-08-19T04:25:19;99899.22;;;21.77;73.19
60099;BME280;62818;49.394;8.686;2022-08-19T04:26:25;99908.78;;;21.89;73.00
60099;BME280;62818;49.394;8.686;2022-08-19T04:27:29;99911.53;;;21.63;73.38
60099;BME280;62818;49.394;8.686;2022-08-19T04:28:31;99908.69;;;21.79;73.51
60099;BME280;62818;49.394;8.686;2022-08-19T04:29:36;99911.25;;;21.96;72.65
60099;BME280;62818;49.394;8.686;2022-08-19T04:30:42;99907.13;;;21.83;73.15
60099;BME280;62818;49.394;8.686;2022-08-19T04:31:48;99913.09;;;21.90;73.20
60099;BME280;62818;49.394;8.686;2022-08-19T04:32:49;99919.38;;;21.64;73.29
60099;BME280;62818;49.394;8.686;2022-08-19T04:33:54;99911.06;;;21.71;74.15
60099;BME280;62818;49.394;8.686;2022-08-19T04:35:03;99911.78;;;21.61;74.23
60099;BME280;62818;49.394;8.686;2022-08-19T04:36:10;99903.69;;;21.61;73.72
60099;BME280;62818;49.394;8.686;2022-08-19T04:37:17;99905.50;;;21.51;74.45
60099;BME280;62818;49.394;8.686;2022-08-19T04:38:21;99909.91;;;21.62;73.93
60099;BME280;62818;49.394;8.686;2022-08-19T04:39:30;99903.63;;;21.51;74.38
60099;BME280;62818;49.394;8.686;2022-08-19T04:40:52;99900.88;;;21.46;74.24
60099;BME280;62818;49.394;8.686;2022-08-19T04:42:11;99893.09;;;21.50;74.86
60099;BME280;62818;49.394;8.686;2022-08-19T04:43:37;99902.47;;;21.42;75.02
60099;BME280;62818;49.394;8.686;2022-08-19T04:44:40;99899.06;;;21.52;74.97
60099;BME280;62818;49.394;8.686;2022-08-19T04:45:42;99896.19;;;21.63;74.35
60099;BME280;62818;49.394;8.686;2022-08-19T04:46:45;99897.94;;;21.16;75.69
60099;BME280;62818;49.394;8.686;2022-08-19T04:47:54;99903.25;;;21.06;76.65
60099;BME280;62818;49.394;8.686;2022-08-19T04:49:02;99902.97;;;21.34;75.73
60099;BME280;62818;49.394;8.686;2022-08-19T04:50:06;99900.66;;;21.53;74.71
60099;BME280;62818;49.394;8.686;2022-08-19T04:51:10;99901.44;;;21.16;76.10
60099;BME280;62818;49.394;8.686;2022-08-19T04:52:15;99903.69;;;21.61;74.61
60099;BME280;62818;49.394;8.686;2022-08-19T04:53:15;99899.75;;;21.79;73.67
60099;BME280;62818;49.394;8.686;2022-08-19T04:54:18;99903.94;;;21.91;73.48
60099;BME280;62818;49.394;8.686;2022-08-19T04:55:23;99901.81;;;21.57;74.44
60099;BME280;62818;49.394;8.686;2022-08-19T04:56:26;99905.50;;;20.92;77.04
60099;BME280;62818;49.394;8.686;2022-08-19T04:57:31;99899.06;;;20.72;78.36
60099;BME280;62818;49.394;8.686;2022-08-19T04:58:35;99898.06;;;20.51;79.41
60099;BME280;62818;49.394;8.686;2022-08-19T04:59:44;99901.59;;;20.56;79.50
60099;BME280;62818;49.394;8.686;2022-08-19T05:00:45;99910.00;;;20.87;78.68
60099;BME280;62818;49.394;8.686;2022-08-19T05:01:46;99906.09;;;20.73;78.73
60099;BME280;62818;49.394;8.686;2022-08-19T05:02:50;99897.84;;;20.57;79.59
60099;BME280;62818;49.394;8.686;2022-08-19T05:03:51;99897.25;;;20.55;79.65
60099;BME280;62818;49.394;8.686;2022-08-19T05:04:57;99896.22;;;20.35;80.73
60099;BME280;62818;49.394;8.686;2022-08-19T05:06:11;99892.91;;;20.28;81.30
60099;BME280;62818;49.394;8.686;2022-08-19T05:07:13;99901.69;;;20.40;81.41
60099;BME280;62818;49.394;8.686;2022-08-19T05:08:20;99893.97;;;20.48;80.50
60099;BME280;62818;49.394;8.686;2022-08-19T05:09:26;99892.66;;;20.51;80.62
60099;BME280;62818;49.394;8.686;2022-08-19T05:10:36;99902.84;;;20.71;79.76
60099;BME280;62818;49.394;8.686;2022-08-19T05:11:38;99898.13;;;21.36;77.06
60099;BME280;62818;49.394;8.686;2022-08-19T05:12:39;99899.88;;;21.52;75.80
60099;BME280;62818;49.394;8.686;2022-08-19T05:13:40;99910.81;;;21.09;77.16
60099;BME280;62818;49.394;8.686;2022-08-19T05:14:43;99913.56;;;21.14;77.12
60099;BME280;62818;49.394;8.686;2022-08-19T05:15:58;99916.31;;;21.24;76.72
60099;BME280;62818;49.394;8.686;2022-08-19T05:17:00;99918.44;;;20.95;78.22
60099;BME280;62818;49.394;8.686;2022-08-19T05:18:01;99909.38;;;21.01;77.66
60099;BME280;62818;49.394;8.686;2022-08-19T05:19:22;99916.00;;;21.47;75.98
60099;BME280;62818;49.394;8.686;2022-08-19T05:20:41;99909.78;;;21.78;74.80
60099;BME280;62818;49.394;8.686;2022-08-19T05:22:01;99912.81;;;21.50;75.26
60099;BME280;62818;49.394;8.686;2022-08-19T05:23:20;99921.03;;;21.07;77.57
60099;BME280;62818;49.394;8.686;2022-08-19T05:24:22;99921.66;;;20.92;78.54
60099;BME280;62818;49.394;8.686;2022-08-19T05:25:25;99914.50;;;21.03;78.41
60099;BME280;62818;49.394;8.686;2022-08-19T05:26:26;99913.94;;;21.01;77.91
60099;BME280;62818;49.394;8.686;2022-08-19T05:27:33;99912.91;;;21.33;77.01
60099;BME280;62818;49.394;8.686;2022-08-19T05:28:36;99910.78;;;21.72;75.05
60099;BME280;62818;49.394;8.686;2022-08-19T05:29:41;99916.44;;;22.02;73.64
60099;BME280;62818;49.394;8.686;2022-08-19T05:30:48;99919.13;;;22.07;73.22
60099;BME280;62818;49.394;8.686;2022-08-19T05:31:52;99928.88;;;22.08;73.15
60099;BME280;62818;49.394;8.686;2022-08-19T05:32:54;99924.66;;;22.23;72.47
60099;BME280;62818;49.394;8.686;2022-08-19T05:33:57;99926.16;;;22.08;72.89
60099;BME280;62818;49.394;8.686;2022-08-19T05:34:58;99930.16;;;22.01;73.36
60099;BME280;62818;49.394;8.686;2022-08-19T05:36:01;99944.44;;;21.96;73.61
60099;BME280;62818;49.394;8.686;2022-08-19T05:37:05;99933.69;;;22.01;73.71
60099;BME280;62818;49.394;8.686;2022-08-19T05:38:07;99940.50;;;22.09;73.02
60099;BME280;62818;49.394;8.686;2022-08-19T05:39:16;99938.91;;;21.81;74.24
60099;BME280;62818;49.394;8.686;2022-08-19T05:40:20;99936.78;;;22.25;72.58
60099;BME280;62818;49.394;8.686;2022-08-19T05:41:23;99938.06;;;22.12;72.83
60099;BME280;62818;49.394;8.686;2022-08-19T05:42:30;99941.25;;;21.68;74.23